sensor_id;sensor_type;location;lat;lon;timestamp;pressure;altitude;pressure_sealevel;temperature;humidity
8366;BME280;4220;42.502;24.188;2023-04-19T00:01:14;94776.94;;;10.60;100.00
8366;BME280;4220;42.502;24.188;2023-04-19T00:03:42;94777.50;;;10.62;100.00
8366;BME280;4220;42.502;24.188;2023-04-19T00:06:09;94773.59;;;10.65;100.00
8366;BME280;4220;42.502;24.188;2023-04-19T00:08:39;94773.94;;;10.68;100.00
8366;BME280;4220;42.502;24.188;2023-04-19T00:11:06;94764.94;;;10.58;100.00
8366;BME280;4220;42.502;24.188;2023-04-19T00:13:33;94766.56;;;10.59;100.00
8366;BME280;4220;42.502;24.188;2023-04-19T00:16:00;94767.94;;;10.61;100.00
8366;BME280;4220;42.502;24.188;2023-04-19T00:18:27;94648.31;;;9.93;100.00
8366;BME280;4220;42.502;24.188;2023-04-19T00:20:55;94740.72;;;10.54;100.00
8366;BME280;4220;42.502;24.188;2023-04-19T00:23:22;94770.13;;;10.64;100.00
8366;BME280;4220;42.502;24.188;2023-04-19T00:25:50;94764.81;;;10.64;100.00
8366;BME280;4220;42.502;24.188;2023-04-19T00:28:17;94760.13;;;10.66;100.00
8366;BME280;4220;42.502;24.188;2023-04-19T00:30:43;94755.13;;;10.70;100.00
8366;BME280;4220;42.502;24.188;2023-04-19T00:33:10;94751.34;;;10.66;100.00
8366;BME280;4220;42.502;24.188;2023-04-19T00:35:38;94752.03;;;10.73;100.00
8366;BME280;4220;42.502;24.188;2023-04-19T00:38:07;94751.78;;;10.74;100.00
8366;BME280;4220;42.502;24.188;2023-04-19T00:40:35;94747.31;;;10.75;100.00
8366;BME280;4220;42.502;24.188;2023-04-19T00:43:02;94755.03;;;10.76;100.00
8366;BME280;4220;42.502;24.188;2023-04-19T00:45:28;94747.06;;;10.76;100.00
8366;BME280;4220;42.502;24.188;2023-04-19T00:47:58;94745.34;;;10.70;100.00
8366;BME280;4220;42.502;24.188;2023-04-19T00:50:25;94748.44;;;10.56;100.00
8366;BME280;4220;42.502;24.188;2023-04-19T00:52:52;94743.28;;;10.49;100.00
8366;BME280;4220;42.502;24.188;2023-04-19T00:55:21;94747.50;;;10.50;100.00
8366;BME280;4220;42.502;24.188;2023-04-19T00:57:49;94746.00;;;10.54;100.00
8366;BME280;4220;42.502;24.188;2023-04-19T01:00:16;94744.16;;;10.55;100.00
8366;BME280;4220;42.502;24.188;2023-04-19T01:02:44;94733.56;;;10.55;100.00
8366;BME280;4220;42.502;24.188;2023-04-19T01:05:11;94732.19;;;10.52;100.00
8366;BME280;4220;42.502;24.188;2023-04-19T01:07:38;94728.06;;;10.56;100.00
8366;BME280;4220;42.502;24.188;2023-04-19T01:10:05;94708.69;;;10.44;100.00
8366;BME280;4220;42.502;24.188;2023-04-19T01:12:33;94721.44;;;10.47;100.00
8366;BME280;4220;42.502;24.188;2023-04-19T01:15:00;94723.66;;;10.50;100.00
8366;BME280;4220;42.502;24.188;2023-04-19T01:17:28;94716.28;;;10.29;100.00
8366;BME280;4220;42.502;24.188;2023-04-19T01:19:58;94715.81;;;10.32;100.00
8366;BME280;4220;42.502;24.188;2023-04-19T01:22:26;94716.50;;;10.39;100.00
8366;BME280;4220;42.502;24.188;2023-04-19T01:24:54;94702.66;;;10.37;100.00
8366;BME280;4220;42.502;24.188;2023-04-19T01:27:21;94710.97;;;10.40;100.00
8366;BME280;4220;42.502;24.188;2023-04-19T01:29:48;94699.19;;;10.25;100.00
8366;BME280;4220;42.502;24.188;2023-04-19T01:32:15;94692.75;;;10.21;100.00
8366;BME280;4220;42.502;24.188;2023-04-19T01:34:42;94695.34;;;10.09;100.00
8366;BME280;4220;42.502;24.188;2023-04-19T01:37:09;94708.22;;;10.06;100.00
8366;BME280;4220;42.502;24.188;2023-04-19T01:39:37;94698.75;;;9.98;100.00
8366;BME280;4220;42.502;24.188;2023-04-19T01:42:04;94695.72;;;9.83;100.00
8366;BME280;4220;42.502;24.188;2023-04-19T01:44:31;94697.88;;;9.63;100.00
8366;BME280;4220;42.502;24.188;2023-04-19T01:46:57;94696.47;;;9.60;100.00
8366;BME280;4220;42.502;24.188;2023-04-19T01:49:24;94686.34;;;9.57;100.00
8366;BME280;4220;42.502;24.188;2023-04-19T01:51:51;94689.00;;;9.69;100.00
8366;BME280;4220;42.502;24.188;2023-04-19T01:54:18;94695.84;;;9.76;100.00
8366;BME280;4220;42.502;24.188;2023-04-19T01:56:46;94692.88;;;9.84;100.00
8366;BME280;4220;42.502;24.188;2023-04-19T01:59:13;94691.59;;;9.87;100.00
8366;BME280;4220;42.502;24.188;2023-04-19T02:01:40;94689.44;;;9.66;100.00
8366;BME280;4220;42.502;24.188;2023-04-19T02:04:06;94683.28;;;9.42;100.00
8366;BME280;4220;42.502;24.188;2023-04-19T02:06:33;94682.69;;;9.40;100.00
8366;BME280;4220;42.502;24.188;2023-04-19T02:09:00;94684.09;;;9.43;100.00
8366;BME280;4220;42.502;24.188;2023-04-19T02:11:27;94682.28;;;9.55;100.00
8366;BME280;4220;42.502;24.188;2023-04-19T02:13:55;94670.88;;;9.54;100.00
8366;BME280;4220;42.502;24.188;2023-04-19T02:16:22;94686.44;;;9.51;100.00
8366;BME280;4220;42.502;24.188;2023-04-19T02:18:48;94691.22;;;9.42;100.00
8366;BME280;4220;42.502;24.188;2023-04-19T02:21:16;94682.91;;;9.39;100.00
8366;BME280;4220;42.502;24.188;2023-04-19T02:23:43;94681.41;;;9.31;100.00
8366;BME280;4220;42.502;24.188;2023-04-19T02:26:10;94686.06;;;9.47;100.00
8366;BME280;4220;42.502;24.188;2023-04-19T02:28:37;94679.06;;;9.53;100.00
8366;BME280;4220;42.502;24.188;2023-04-19T02:31:06;94679.59;;;9.43;100.00
8366;BME280;4220;42.502;24.188;2023-04-19T02:33:33;94685.19;;;9.35;100.00
8366;BME280;4220;42.502;24.188;2023-04-19T02:35:59;94686.59;;;9.38;100.00
8366;BME280;4220;42.502;24.188;2023-04-19T02:38:26;94667.78;;;9.28;100.00
8366;BME280;4220;42.502;24.188;2023-04-19T02:40:53;94677.53;;;9.45;100.00
8366;BME280;4220;42.502;24.188;2023-04-19T02:43:20;94685.16;;;9.53;100.00
8366;BME280;4220;42.502;24.188;2023-04-19T02:45:47;94686.91;;;9.59;100.00
8366;BME280;4220;42.502;24.188;2023-04-19T02:48:15;94683.13;;;9.67;100.00
8366;BME280;4220;42.502;24.188;2023-04-19T02:50:42;94680.03;;;9.70;100.00
8366;BME280;4220;42.502;24.188;2023-04-19T02:53:08;94690.25;;;9.66;100.00
8366;BME280;4220;42.502;24.188;2023-04-19T02:55:35;94685.41;;;9.63;100.00
8366;BME280;4220;42.502;24.188;2023-04-19T02:58:02;94683.28;;;9.42;100.00
8366;BME280;4220;42.502;24.188;2023-04-19T03:00:29;94684.25;;;9.30;100.00
8366;BME280;4220;42.502;24.188;2023-04-19T03:02:56;94682.56;;;9.35;100.00
8366;BME280;4220;42.502;24.188;2023-04-19T03:05:24;94689.19;;;9.26;100.00
8366;BME280;4220;42.502;24.188;2023-04-19T03:07:51;94672.81;;;8.99;100.00
8366;BME280;4220;42.502;24.188;2023-04-19T03:10:18;94667.91;;;8.85;100.00
8366;BME280;4220;42.502;24.188;2023-04-19T03:12:44;94665.50;;;9.01;100.00
8366;BME280;4220;42.502;24.188;2023-04-19T03:15:11;94669.72;;;9.20;100.00
8366;BME280;4220;42.502;24.188;2023-04-19T03:17:38;94665.50;;;9.01;100.00
8366;BME280;4220;42.502;24.188;2023-04-19T03:20:06;94665.97;;;9.10;100.00
8366;BME280;4220;42.502;24.188;2023-04-19T03:22:37;94671.31;;;9.21;100.00
8366;BME280;4220;42.502;24.188;2023-04-19T03:25:04;94671.84;;;9.30;100.00
8366;BME280;4220;42.502;24.188;2023-04-19T03:27:33;94668.88;;;9.38;100.00
8366;BME280;4220;42.502;24.188;2023-04-19T03:30:01;94669.03;;;9.43;100.00
8366;BME280;4220;42.502;24.188;2023-04-19T03:32:28;94668.09;;;9.49;100.00
8366;BME280;4220;42.502;24.188;2023-04-19T03:34:54;94675.88;;;9.62;100.00
8366;BME280;4220;42.502;24.188;2023-04-19T03:37:21;94682.63;;;9.58;100.00
8366;BME280;4220;42.502;24.188;2023-04-19T03:39:49;94681.66;;;9.41;100.00
8366;BME280;4220;42.502;24.188;2023-04-19T03:42:16;94681.66;;;9.41;100.00
8366;BME280;4220;42.502;24.188;2023-04-19T03:44:43;94679.59;;;9.43;100.00
8366;BME280;4220;42.502;24.188;2023-04-19T03:47:10;94685.16;;;9.53;100.00
8366;BME280;4220;42.502;24.188;2023-04-19T03:49:36;94677.13;;;9.60;100.00
8366;BME280;4220;42.502;24.188;2023-04-19T03:52:04;94675.16;;;9.55;100.00
8366;BME280;4220;42.502;24.188;2023-04-19T03:54:30;94672.84;;;9.59;100.00
8366;BME280;4220;42.502;24.188;2023-04-19T03:56:59;94676.22;;;9.66;100.00
8366;BME280;4220;42.502;24.188;2023-04-19T03:59:26;94646.94;;;9.49;100.00
8366;BME280;4220;42.502;24.188;2023-04-19T04:01:52;94666.75;;;9.58;100.00
8366;BME280;4220;42.502;24.188;2023-04-19T04:04:19;94675.78;;;9.69;100.00
8366;BME280;4220;42.502;24.188;2023-04-19T04:06:46;94674.66;;;9.76;100.00
8366;BME280;4220;42.502;24.188;2023-04-19T04:09:13;94675.09;;;9.73;100.00
8366;BME280;4220;42.502;24.188;2023-04-19T04:11:40;94679.69;;;9.78;100.00
8366;BME280;4220;42.502;24.188;2023-04-19T04:14:08;94676.63;;;9.81;100.00
8366;BME280;4220;42.502;24.188;2023-04-19T04:16:34;94682.63;;;9.88;100.00
8366;BME280;4220;42.502;24.188;2023-04-19T04:19:01;94685.63;;;9.92;100.00
8366;BME280;4220;42.502;24.188;2023-04-19T04:21:28;94683.09;;;9.97;100.00
8366;BME280;4220;42.502;24.188;2023-04-19T04:23:55;94675.75;;;9.99;100.00
8366;BME280;4220;42.502;24.188;2023-04-19T04:26:23;94680.59;;;10.02;100.00
8366;BME280;4220;42.502;24.188;2023-04-19T04:28:55;94683.13;;;10.08;100.00
8366;BME280;4220;42.502;24.188;2023-04-19T04:31:23;94675.34;;;10.13;100.00
8366;BME280;4220;42.502;24.188;2023-04-19T04:33:50;94672.91;;;10.12;100.00
8366;BME280;4220;42.502;24.188;2023-04-19T04:36:18;94695.06;;;10.29;100.00
8366;BME280;4220;42.502;24.188;2023-04-19T04:38:44;94677.09;;;10.31;100.00
8366;BME280;4220;42.502;24.188;2023-04-19T04:41:11;94692.28;;;10.47;100.00
8366;BME280;4220;42.502;24.188;2023-04-19T04:43:38;94692.41;;;10.52;100.00
8366;BME280;4220;42.502;24.188;2023-04-19T04:46:05;94683.78;;;10.45;100.00
8366;BME280;4220;42.502;24.188;2023-04-19T04:48:33;94674.78;;;10.46;100.00
8366;BME280;4220;42.502;24.188;2023-04-19T04:51:00;94684.00;;;10.55;100.00
8366;BME280;4220;42.502;24.188;2023-04-19T04:53:27;94684.69;;;10.39;100.00
8366;BME280;4220;42.502;24.188;2023-04-19T04:55:54;94682.84;;;10.28;100.00
8366;BME280;4220;42.502;24.188;2023-04-19T04:58:21;94683.56;;;9.94;100.00
8366;BME280;4220;42.502;24.188;2023-04-19T05:00:47;94678.00;;;9.83;100.00
8366;BME280;4220;42.502;24.188;2023-04-19T05:03:14;94690.47;;;9.95;100.00
8366;BME280;4220;42.502;24.188;2023-04-19T05:05:42;94681.78;;;9.76;100.00
8366;BME280;4220;42.502;24.188;2023-04-19T05:08:09;94685.41;;;9.63;100.00
8366;BME280;4220;42.502;24.188;2023-04-19T05:10:36;94696.63;;;9.65;100.00
8366;BME280;4220;42.502;24.188;2023-04-19T05:13:03;94690.66;;;9.81;100.00
8366;BME280;4220;42.502;24.188;2023-04-19T05:15:30;94695.19;;;9.93;100.00
8366;BME280;4220;42.502;24.188;2023-04-19T05:17:57;94681.88;;;9.69;100.00
8366;BME280;4220;42.502;24.188;2023-04-19T05:20:24;94688.84;;;9.52;100.00
8366;BME280;4220;42.502;24.188;2023-04-19T05:22:57;94686.44;;;9.51;100.00
8366;BME280;4220;42.502;24.188;2023-04-19T05:25:23;94689.69;;;9.35;100.00
8366;BME280;4220;42.502;24.188;2023-04-19T05:27:50;94690.63;;;9.40;100.00
8366;BME280;4220;42.502;24.188;2023-04-19T05:30:17;94699.00;;;9.55;100.00
8366;BME280;4220;42.502;24.188;2023-04-19T05:32:44;94683.38;;;9.65;100.00
8366;BME280;4220;42.502;24.188;2023-04-19T05:35:11;94698.78;;;9.68;100.00
8366;BME280;4220;42.502;24.188;2023-04-19T05:37:38;94694.03;;;9.59;100.00
8366;BME280;4220;42.502;24.188;2023-04-19T05:40:08;94694.84;;;9.59;100.00
8366;BME280;4220;42.502;24.188;2023-04-19T05:42:35;94707.19;;;9.65;100.00
8366;BME280;4220;42.502;24.188;2023-04-19T05:45:02;94627.09;;;9.29;100.00
8366;BME280;4220;42.502;24.188;2023-04-19T05:47:29;94704.72;;;9.82;100.00
8366;BME280;4220;42.502;24.188;2023-04-19T05:49:56;94703.47;;;9.84;100.00
8366;BME280;4220;42.502;24.188;2023-04-19T05:52:22;94676.97;;;9.84;100.00
8366;BME280;4220;42.502;24.188;2023-04-19T05:54:49;94700.06;;;10.07;100.00
8366;BME280;4220;42.502;24.188;2023-04-19T05:57:17;94711.81;;;10.00;100.00
8366;BME280;4220;42.502;24.188;2023-04-19T05:59:44;94700.84;;;9.96;100.00
8366;BME280;4220;42.502;24.188;2023-04-19T06:02:11;94710.03;;;9.82;100.00
8366;BME280;4220;42.502;24.188;2023-04-19T06:04:38;94668.56;;;9.46;100.00
8366;BME280;4220;42.502;24.188;2023-04-19T06:07:05;94712.25;;;9.67;100.00
8366;BME280;4220;42.502;24.188;2023-04-19T06:09:32;94708.94;;;9.71;100.00
8366;BME280;4220;42.502;24.188;2023-04-19T06:11:59;94707.34;;;9.70;100.00
8366;BME280;4220;42.502;24.188;2023-04-19T06:14:27;94708.75;;;9.84;100.00
8366;BME280;4220;42.502;24.188;2023-04-19T06:16:54;94718.69;;;9.89;100.00
8366;BME280;4220;42.502;24.188;2023-04-19T06:19:21;94694.94;;;9.82;100.00
8366;BME280;4220;42.502;24.188;2023-04-19T06:21:48;94709.91;;;9.88;100.00
8366;BME280;4220;42.502;24.188;2023-04-19T06:24:15;94708.75;;;9.84;100.00
8366;BME280;4220;42.502;24.188;2023-04-19T06:26:42;94703.25;;;9.98;100.00
8366;BME280;4220;42.502;24.188;2023-04-19T06:29:08;94714.09;;;10.08;100.00
8366;BME280;4220;42.502;24.188;2023-04-19T06:31:37;94719.19;;;10.09;100.00
8366;BME280;4220;42.502;24.188;2023-04-19T06:34:03;94720.75;;;10.17;100.00
8366;BME280;4220;42.502;24.188;2023-04-19T06:36:31;94717.16;;;10.23;100.00
8366;BME280;4220;42.502;24.188;2023-04-19T06:38:57;94716.03;;;10.42;100.00
8366;BME280;4220;42.502;24.188;2023-04-19T06:41:24;94711.91;;;10.46;100.00
8366;BME280;4220;42.502;24.188;2023-04-19T06:43:51;94716.16;;;10.47;100.00
8366;BME280;4220;42.502;24.188;2023-04-19T06:46:18;94721.25;;;10.48;100.00
8366;BME280;4220;42.502;24.188;2023-04-19T06:48:46;94731.03;;;10.48;100.00
8366;BME280;4220;42.502;24.188;2023-04-19T06:51:13;94735.31;;;10.49;100.00
8366;BME280;4220;42.502;24.188;2023-04-19T06:53:40;94727.25;;;10.56;100.00
8366;BME280;4220;42.502;24.188;2023-04-19T06:56:09;94704.97;;;10.45;100.00
8366;BME280;4220;42.502;24.188;2023-04-19T06:58:37;94676.38;;;10.24;100.00
8366;BME280;4220;42.502;24.188;2023-04-19T07:01:04;94727.94;;;10.63;100.00
8366;BME280;4220;42.502;24.188;2023-04-19T07:03:31;94725.97;;;10.58;100.00
8366;BME280;4220;42.502;24.188;2023-04-19T07:05:59;94738.19;;;10.59;100.00
8366;BME280;4220;42.502;24.188;2023-04-19T07:08:26;94731.97;;;10.65;100.00
8366;BME280;4220;42.502;24.188;2023-04-19T07:10:53;94720.22;;;10.61;100.00
8366;BME280;4220;42.502;24.188;2023-04-19T07:13:21;94721.72;;;10.69;100.00
8366;BME280;4220;42.502;24.188;2023-04-19T07:15:47;94721.91;;;10.79;100.00
8366;BME280;4220;42.502;24.188;2023-04-19T07:18:14;94733.13;;;10.92;100.00
8366;BME280;4220;42.502;24.188;2023-04-19T07:20:41;94712.34;;;10.89;100.00
8366;BME280;4220;42.502;24.188;2023-04-19T07:23:14;94718.66;;;11.11;100.00
8366;BME280;4220;42.502;24.188;2023-04-19T07:25:41;94725.22;;;11.21;100.00
8366;BME280;4220;42.502;24.188;2023-04-19T07:28:08;94725.69;;;11.29;100.00
8366;BME280;4220;42.502;24.188;2023-04-19T07:30:35;94742.03;;;11.38;100.00
8366;BME280;4220;42.502;24.188;2023-04-19T07:33:02;94718.25;;;11.43;100.00
8366;BME280;4220;42.502;24.188;2023-04-19T07:35:32;94728.25;;;11.64;100.00
8366;BME280;4220;42.502;24.188;2023-04-19T07:37:59;94718.19;;;11.66;100.00
8366;BME280;4220;42.502;24.188;2023-04-19T07:40:27;94739.50;;;11.82;100.00
8366;BME280;4220;42.502;24.188;2023-04-19T07:42:55;94717.94;;;11.79;100.00
8366;BME280;4220;42.502;24.188;2023-04-19T07:45:22;94741.59;;;11.80;100.00
8366;BME280;4220;42.502;24.188;2023-04-19T07:47:48;94742.50;;;11.86;100.00
8366;BME280;4220;42.502;24.188;2023-04-19T07:50:15;94738.06;;;11.92;100.00
8366;BME280;4220;42.502;24.188;2023-04-19T07:52:43;94743.78;;;11.84;100.00
8366;BME280;4220;42.502;24.188;2023-04-19T07:55:09;94735.25;;;11.82;100.00
8366;BME280;4220;42.502;24.188;2023-04-19T07:57:38;94726.09;;;11.89;100.00
8366;BME280;4220;42.502;24.188;2023-04-19T08:00:05;94730.72;;;12.10;100.00
8366;BME280;4220;42.502;24.188;2023-04-19T08:02:35;94745.31;;;12.24;100.00
8366;BME280;4220;42.502;24.188;2023-04-19T08:05:02;94722.59;;;12.17;100.00
8366;BME280;4220;42.502;24.188;2023-04-19T08:07:29;94713.66;;;12.06;100.00
8366;BME280;4220;42.502;24.188;2023-04-19T08:09:56;94738.16;;;12.25;100.00
8366;BME280;4220;42.502;24.188;2023-04-19T08:12:23;94719.81;;;12.23;100.00
8366;BME280;4220;42.502;24.188;2023-04-19T08:14:51;94731.31;;;12.29;100.00
8366;BME280;4220;42.502;24.188;2023-04-19T08:17:18;94735.59;;;12.46;100.00
8366;BME280;4220;42.502;24.188;2023-04-19T08:19:46;94726.16;;;12.39;100.00
8366;BME280;4220;42.502;24.188;2023-04-19T08:22:13;94750.09;;;12.56;100.00
8366;BME280;4220;42.502;24.188;2023-04-19T08:24:40;94714.56;;;12.62;100.00
8366;BME280;4220;42.502;24.188;2023-04-19T08:27:08;94730.44;;;12.90;100.00
8366;BME280;4220;42.502;24.188;2023-04-19T08:29:34;94720.75;;;12.84;100.00
8366;BME280;4220;42.502;24.188;2023-04-19T08:32:03;94714.09;;;13.03;100.00
8366;BME280;4220;42.502;24.188;2023-04-19T08:34:30;94724.94;;;12.96;100.00
8366;BME280;4220;42.502;24.188;2023-04-19T08:36:57;94720.16;;;12.98;100.00
8366;BME280;4220;42.502;24.188;2023-04-19T08:39:23;94703.06;;;13.11;100.00
8366;BME280;4220;42.502;24.188;2023-04-19T08:41:50;94726.97;;;13.28;100.00
8366;BME280;4220;42.502;24.188;2023-04-19T08:44:18;94717.41;;;13.10;100.00
8366;BME280;4220;42.502;24.188;2023-04-19T08:46:46;94714.28;;;13.13;100.00
8366;BME280;4220;42.502;24.188;2023-04-19T08:49:16;94679.09;;;13.11;100.00
8366;BME280;4220;42.502;24.188;2023-04-19T08:51:46;94716.25;;;13.44;100.00
8366;BME280;4220;42.502;24.188;2023-04-19T08:54:14;94704.31;;;13.47;100.00
8366;BME280;4220;42.502;24.188;2023-04-19T08:56:41;94716.25;;;13.44;100.00
8366;BME280;4220;42.502;24.188;2023-04-19T08:59:08;94726.19;;;13.49;100.00
8366;BME280;4220;42.502;24.188;2023-04-19T09:01:35;94685.19;;;13.28;100.00
8366;BME280;4220;42.502;24.188;2023-04-19T09:04:03;94719.31;;;13.53;100.00
8366;BME280;4220;42.502;24.188;2023-04-19T09:06:35;94715.22;;;13.67;100.00
8366;BME280;4220;42.502;24.188;2023-04-19T09:09:16;94708.38;;;13.98;100.00
8366;BME280;4220;42.502;24.188;2023-04-19T09:11:43;94717.00;;;14.10;100.00
8366;BME280;4220;42.502;24.188;2023-04-19T09:14:12;94686.97;;;14.19;100.00
8366;BME280;4220;42.502;24.188;2023-04-19T09:16:40;94700.41;;;14.29;96.67
8366;BME280;4220;42.502;24.188;2023-04-19T09:19:07;94715.59;;;14.29;96.41
8366;BME280;4220;42.502;24.188;2023-04-19T09:21:35;94707.00;;;14.22;95.04
8366;BME280;4220;42.502;24.188;2023-04-19T09:24:03;94716.25;;;14.41;95.62
8366;BME280;4220;42.502;24.188;2023-04-19T09:26:31;94707.88;;;14.59;95.69
8366;BME280;4220;42.502;24.188;2023-04-19T09:28:58;94588.53;;;14.18;94.25
8366;BME280;4220;42.502;24.188;2023-04-19T09:31:27;94709.56;;;15.12;92.46
8366;BME280;4220;42.502;24.188;2023-04-19T09:33:54;94703.69;;;15.10;91.49
8366;BME280;4220;42.502;24.188;2023-04-19T09:36:29;94705.72;;;14.93;91.55
8366;BME280;4220;42.502;24.188;2023-04-19T09:38:58;94698.44;;;14.83;92.28
8366;BME280;4220;42.502;24.188;2023-04-19T09:41:25;94689.97;;;14.96;91.41
8366;BME280;4220;42.502;24.188;2023-04-19T09:43:52;94702.06;;;15.09;88.96
8366;BME280;4220;42.502;24.188;2023-04-19T09:46:29;94641.50;;;14.73;88.81
8366;BME280;4220;42.502;24.188;2023-04-19T09:49:14;94666.47;;;14.93;90.16
8366;BME280;4220;42.502;24.188;2023-04-19T09:51:42;94690.59;;;15.14;88.23
8366;BME280;4220;42.502;24.188;2023-04-19T09:54:11;94695.44;;;15.17;90.20
8366;BME280;4220;42.502;24.188;2023-04-19T09:56:38;94689.66;;;15.35;89.91
8366;BME280;4220;42.502;24.188;2023-04-19T09:59:07;94686.94;;;15.25;88.76
8366;BME280;4220;42.502;24.188;2023-04-19T10:01:37;94684.59;;;15.38;89.03
8366;BME280;4220;42.502;24.188;2023-04-19T10:04:05;94683.06;;;15.47;87.34
8366;BME280;4220;42.502;24.188;2023-04-19T10:06:34;94675.31;;;15.51;88.17
8366;BME280;4220;42.502;24.188;2023-04-19T10:09:02;94676.44;;;15.60;87.15
8366;BME280;4220;42.502;24.188;2023-04-19T10:11:32;94682.38;;;15.77;88.87
8366;BME280;4220;42.502;24.188;2023-04-19T10:14:04;94682.97;;;15.99;87.04
8366;BME280;4220;42.502;24.188;2023-04-19T10:16:32;94654.53;;;15.73;83.42
8366;BME280;4220;42.502;24.188;2023-04-19T10:19:00;94677.34;;;16.01;84.27
8366;BME280;4220;42.502;24.188;2023-04-19T10:21:27;94674.38;;;16.02;82.47
8366;BME280;4220;42.502;24.188;2023-04-19T10:23:56;94661.34;;;16.26;81.23
8366;BME280;4220;42.502;24.188;2023-04-19T10:26:24;94679.25;;;16.35;78.08
8366;BME280;4220;42.502;24.188;2023-04-19T10:28:53;94691.34;;;16.53;77.68
8366;BME280;4220;42.502;24.188;2023-04-19T10:31:20;94677.13;;;16.38;78.73
8366;BME280;4220;42.502;24.188;2023-04-19T10:33:48;94657.84;;;16.41;77.15
8366;BME280;4220;42.502;24.188;2023-04-19T10:36:15;94658.13;;;16.54;80.86
8366;BME280;4220;42.502;24.188;2023-04-19T10:38:43;94672.34;;;16.65;77.76
8366;BME280;4220;42.502;24.188;2023-04-19T10:41:12;94662.91;;;16.02;79.11
8366;BME280;4220;42.502;24.188;2023-04-19T10:43:42;94661.88;;;16.28;77.82
8366;BME280;4220;42.502;24.188;2023-04-19T10:46:13;94668.03;;;16.54;77.69
8366;BME280;4220;42.502;24.188;2023-04-19T10:48:52;94666.69;;;16.61;77.88
8366;BME280;4220;42.502;24.188;2023-04-19T10:51:20;94679.84;;;16.68;76.37
8366;BME280;4220;42.502;24.188;2023-04-19T10:53:52;94655.75;;;16.58;78.15
8366;BME280;4220;42.502;24.188;2023-04-19T10:56:21;94665.34;;;16.28;75.21
8366;BME280;4220;42.502;24.188;2023-04-19T10:59:13;94653.31;;;16.21;75.90
8366;BME280;4220;42.502;24.188;2023-04-19T11:01:55;94666.97;;;16.55;74.76
8366;BME280;4220;42.502;24.188;2023-04-19T11:07:05;94642.25;;;17.03;83.96
8366;BME280;4220;42.502;24.188;2023-04-19T11:09:34;94666.34;;;17.18;85.30
8366;BME280;4220;42.502;24.188;2023-04-19T11:12:04;94677.09;;;16.93;85.80
8366;BME280;4220;42.502;24.188;2023-04-19T11:14:34;94672.34;;;16.60;87.74
8366;BME280;4220;42.502;24.188;2023-04-19T11:17:12;94662.13;;;16.42;89.48
8366;BME280;4220;42.502;24.188;2023-04-19T11:19:41;94664.84;;;16.57;88.81
8366;BME280;4220;42.502;24.188;2023-04-19T11:22:09;94660.56;;;16.66;88.45
8366;BME280;4220;42.502;24.188;2023-04-19T11:24:35;94672.59;;;16.68;87.78
8366;BME280;4220;42.502;24.188;2023-04-19T11:27:07;94668.81;;;16.89;86.42
8366;BME280;4220;42.502;24.188;2023-04-19T11:29:34;94654.63;;;16.89;85.13
8366;BME280;4220;42.502;24.188;2023-04-19T11:32:01;94667.47;;;16.92;84.68
8366;BME280;4220;42.502;24.188;2023-04-19T11:34:29;94665.34;;;16.79;83.79
8366;BME280;4220;42.502;24.188;2023-04-19T11:37:00;94667.50;;;16.77;84.66
8366;BME280;4220;42.502;24.188;2023-04-19T11:39:27;94668.84;;;16.59;85.24
8366;BME280;4220;42.502;24.188;2023-04-19T11:41:54;94667.22;;;16.68;84.97
8366;BME280;4220;42.502;24.188;2023-04-19T11:44:20;94669.94;;;16.58;85.19
8366;BME280;4220;42.502;24.188;2023-04-19T11:47:01;94675.81;;;16.60;86.44
8366;BME280;4220;42.502;24.188;2023-04-19T11:49:31;94672.06;;;16.61;86.94
8366;BME280;4220;42.502;24.188;2023-04-19T11:52:01;94667.50;;;16.57;86.68
8366;BME280;4220;42.502;24.188;2023-04-19T11:54:28;94667.25;;;16.53;85.94
8366;BME280;4220;42.502;24.188;2023-04-19T11:56:59;94673.09;;;16.45;87.10
8366;BME280;4220;42.502;24.188;2023-04-19T11:59:28;94674.16;;;16.39;88.75
8366;BME280;4220;42.502;24.188;2023-04-19T12:01:55;94661.88;;;16.43;89.34
8366;BME280;4220;42.502;24.188;2023-04-19T12:04:22;94672.56;;;16.93;89.79
8366;BME280;4220;42.502;24.188;2023-04-19T12:06:58;94678.16;;;17.17;87.96
8366;BME280;4220;42.502;24.188;2023-04-19T12:09:25;94680.78;;;17.27;88.58
8366;BME280;4220;42.502;24.188;2023-04-19T12:11:52;94676.53;;;17.16;90.21
8366;BME280;4220;42.502;24.188;2023-04-19T12:14:20;94671.25;;;16.71;91.86
8366;BME280;4220;42.502;24.188;2023-04-19T12:17:07;94675.50;;;16.42;91.82
8366;BME280;4220;42.502;24.188;2023-04-19T12:19:35;94675.25;;;16.38;91.40
8366;BME280;4220;42.502;24.188;2023-04-19T12:22:12;94675.50;;;16.36;92.87
8366;BME280;4220;42.502;24.188;2023-04-19T12:24:39;94674.47;;;16.53;94.94
8366;BME280;4220;42.502;24.188;2023-04-19T12:27:07;94670.69;;;16.49;96.46
8366;BME280;4220;42.502;24.188;2023-04-19T12:29:34;94661.09;;;16.58;96.87
8366;BME280;4220;42.502;24.188;2023-04-19T12:32:01;94664.31;;;16.70;94.80
8366;BME280;4220;42.502;24.188;2023-04-19T12:34:28;94662.59;;;17.19;92.80
8366;BME280;4220;42.502;24.188;2023-04-19T12:36:55;94633.09;;;17.29;89.49
8366;BME280;4220;42.502;24.188;2023-04-19T12:39:24;94661.97;;;17.52;89.08
8366;BME280;4220;42.502;24.188;2023-04-19T12:41:51;94656.22;;;17.74;88.53
8366;BME280;4220;42.502;24.188;2023-04-19T12:44:17;94650.56;;;17.86;86.45
8366;BME280;4220;42.502;24.188;2023-04-19T12:46:44;94652.19;;;17.77;87.15
8366;BME280;4220;42.502;24.188;2023-04-19T12:49:11;94656.53;;;17.68;87.39
8366;BME280;4220;42.502;24.188;2023-04-19T12:51:38;94650.66;;;17.66;87.49
8366;BME280;4220;42.502;24.188;2023-04-19T12:54:06;94637.47;;;18.18;85.78
8366;BME280;4220;42.502;24.188;2023-04-19T12:56:35;94649.06;;;18.81;81.96
8366;BME280;4220;42.502;24.188;2023-04-19T12:59:02;94645.84;;;19.08;81.41
8366;BME280;4220;42.502;24.188;2023-04-19T13:01:28;94645.81;;;19.60;79.57
8366;BME280;4220;42.502;24.188;2023-04-19T13:03:56;94647.78;;;19.73;78.72
8366;BME280;4220;42.502;24.188;2023-04-19T13:06:22;94643.91;;;19.84;78.41
8366;BME280;4220;42.502;24.188;2023-04-19T13:08:49;94630.75;;;19.59;77.66
8366;BME280;4220;42.502;24.188;2023-04-19T13:11:16;94640.81;;;19.25;78.24
8366;BME280;4220;42.502;24.188;2023-04-19T13:13:49;94631.13;;;19.00;79.49